sensor_id;sensor_type;location;lat;lon;timestamp;temperature;humidity
23347;DHT22;36852;45.466;11.066;2023-08-07T00:00:32;23.10;96.20
23347;DHT22;36852;45.466;11.066;2023-08-07T00:02:59;23.10;95.90
23347;DHT22;36852;45.466;11.066;2023-08-07T00:05:28;23.00;95.80
23347;DHT22;36852;45.466;11.066;2023-08-07T00:07:57;22.90;95.80
23347;DHT22;36852;45.466;11.066;2023-08-07T00:10:25;22.90;96.10
23347;DHT22;36852;45.466;11.066;2023-08-07T00:12:54;22.80;96.20
23347;DHT22;36852;45.466;11.066;2023-08-07T00:15:25;22.80;96.00
23347;DHT22;36852;45.466;11.066;2023-08-07T00:17:53;22.90;96.10
23347;DHT22;36852;45.466;11.066;2023-08-07T00:20:21;22.80;95.90
23347;DHT22;36852;45.466;11.066;2023-08-07T00:22:49;22.80;95.50
23347;DHT22;36852;45.466;11.066;2023-08-07T00:25:17;22.80;95.50
23347;DHT22;36852;45.466;11.066;2023-08-07T00:27:45;22.80;95.60
23347;DHT22;36852;45.466;11.066;2023-08-07T00:30:13;22.80;95.30
23347;DHT22;36852;45.466;11.066;2023-08-07T00:32:41;22.80;95.70
23347;DHT22;36852;45.466;11.066;2023-08-07T00:35:09;22.70;95.80
23347;DHT22;36852;45.466;11.066;2023-08-07T00:37:37;22.70;95.90
23347;DHT22;36852;45.466;11.066;2023-08-07T00:40:08;22.70;95.90
23347;DHT22;36852;45.466;11.066;2023-08-07T00:42:36;22.60;96.40
23347;DHT22;36852;45.466;11.066;2023-08-07T00:45:05;22.60;95.90
23347;DHT22;36852;45.466;11.066;2023-08-07T00:47:33;22.50;96.40
23347;DHT22;36852;45.466;11.066;2023-08-07T00:50:02;22.50;96.30
23347;DHT22;36852;45.466;11.066;2023-08-07T00:52:32;22.50;96.70
23347;DHT22;36852;45.466;11.066;2023-08-07T00:54:59;22.50;96.90
23347;DHT22;36852;45.466;11.066;2023-08-07T00:57:28;22.50;97.00
23347;DHT22;36852;45.466;11.066;2023-08-07T00:59:59;22.50;96.90
23347;DHT22;36852;45.466;11.066;2023-08-07T01:02:29;22.40;97.30
23347;DHT22;36852;45.466;11.066;2023-08-07T01:04:57;22.40;97.50
23347;DHT22;36852;45.466;11.066;2023-08-07T01:07:25;22.40;97.50
23347;DHT22;36852;45.466;11.066;2023-08-07T01:09:53;22.40;97.20
23347;DHT22;36852;45.466;11.066;2023-08-07T01:12:27;22.30;96.80
23347;DHT22;36852;45.466;11.066;2023-08-07T01:15:01;22.30;96.80
23347;DHT22;36852;45.466;11.066;2023-08-07T01:17:28;22.20;96.60
23347;DHT22;36852;45.466;11.066;2023-08-07T01:20:00;22.20;97.10
23347;DHT22;36852;45.466;11.066;2023-08-07T01:22:28;22.20;96.40
23347;DHT22;36852;45.466;11.066;2023-08-07T01:24:56;22.20;96.70
23347;DHT22;36852;45.466;11.066;2023-08-07T01:27:37;22.10;96.30
23347;DHT22;36852;45.466;11.066;2023-08-07T01:35:33;21.90;96.20
23347;DHT22;36852;45.466;11.066;2023-08-07T01:38:02;21.90;96.50
23347;DHT22;36852;45.466;11.066;2023-08-07T01:40:31;21.90;96.20
23347;DHT22;36852;45.466;11.066;2023-08-07T01:42:59;21.90;96.30
23347;DHT22;36852;45.466;11.066;2023-08-07T01:45:29;21.90;96.90
23347;DHT22;36852;45.466;11.066;2023-08-07T01:47:57;21.80;97.10
23347;DHT22;36852;45.466;11.066;2023-08-07T01:50:25;21.90;97.50
23347;DHT22;36852;45.466;11.066;2023-08-07T01:52:52;21.80;97.20
23347;DHT22;36852;45.466;11.066;2023-08-07T01:55:22;21.80;97.40
23347;DHT22;36852;45.466;11.066;2023-08-07T01:57:51;21.70;96.90
23347;DHT22;36852;45.466;11.066;2023-08-07T02:00:19;21.80;96.70
23347;DHT22;36852;45.466;11.066;2023-08-07T02:02:48;21.70;97.00
23347;DHT22;36852;45.466;11.066;2023-08-07T02:05:16;21.70;97.20
23347;DHT22;36852;45.466;11.066;2023-08-07T02:07:44;21.70;97.10
23347;DHT22;36852;45.466;11.066;2023-08-07T02:10:12;21.70;97.40
23347;DHT22;36852;45.466;11.066;2023-08-07T02:12:41;21.60;97.70
23347;DHT22;36852;45.466;11.066;2023-08-07T02:15:09;21.60;98.20
23347;DHT22;36852;45.466;11.066;2023-08-07T02:17:37;21.60;98.30
23347;DHT22;36852;45.466;11.066;2023-08-07T02:20:09;21.50;98.60
23347;DHT22;36852;45.466;11.066;2023-08-07T02:22:37;21.50;98.90
23347;DHT22;36852;45.466;11.066;2023-08-07T02:25:06;21.50;98.80
23347;DHT22;36852;45.466;11.066;2023-08-07T02:27:34;21.50;98.50
23347;DHT22;36852;45.466;11.066;2023-08-07T02:30:04;21.50;98.90
23347;DHT22;36852;45.466;11.066;2023-08-07T02:32:35;21.40;98.60
23347;DHT22;36852;45.466;11.066;2023-08-07T02:35:04;21.40;98.10
23347;DHT22;36852;45.466;11.066;2023-08-07T02:37:32;21.30;98.60
23347;DHT22;36852;45.466;11.066;2023-08-07T02:40:00;21.20;99.10
23347;DHT22;36852;45.466;11.066;2023-08-07T02:42:28;21.30;98.80
23347;DHT22;36852;45.466;11.066;2023-08-07T02:44:57;21.30;98.00
23347;DHT22;36852;45.466;11.066;2023-08-07T02:47:27;21.30;98.30
23347;DHT22;36852;45.466;11.066;2023-08-07T02:49:55;21.30;97.80
23347;DHT22;36852;45.466;11.066;2023-08-07T02:52:23;21.30;98.00
23347;DHT22;36852;45.466;11.066;2023-08-07T02:54:51;21.30;98.30
23347;DHT22;36852;45.466;11.066;2023-08-07T02:57:19;21.40;98.40
23347;DHT22;36852;45.466;11.066;2023-08-07T02:59:46;21.30;96.60
23347;DHT22;36852;45.466;11.066;2023-08-07T03:02:14;21.30;95.80
23347;DHT22;36852;45.466;11.066;2023-08-07T03:04:41;21.20;97.30
23347;DHT22;36852;45.466;11.066;2023-08-07T03:07:09;21.20;98.60
23347;DHT22;36852;45.466;11.066;2023-08-07T03:09:37;21.10;99.50
23347;DHT22;36852;45.466;11.066;2023-08-07T03:12:08;21.20;99.90
23347;DHT22;36852;45.466;11.066;2023-08-07T03:14:46;21.10;99.70
23347;DHT22;36852;45.466;11.066;2023-08-07T03:17:13;21.10;99.20
23347;DHT22;36852;45.466;11.066;2023-08-07T03:19:42;21.10;98.90
23347;DHT22;36852;45.466;11.066;2023-08-07T03:22:12;21.00;98.60
23347;DHT22;36852;45.466;11.066;2023-08-07T03:24:39;21.10;99.00
23347;DHT22;36852;45.466;11.066;2023-08-07T03:27:07;21.10;98.60
23347;DHT22;36852;45.466;11.066;2023-08-07T03:29:36;21.00;96.60
23347;DHT22;36852;45.466;11.066;2023-08-07T03:32:05;21.00;96.90
23347;DHT22;36852;45.466;11.066;2023-08-07T03:34:34;21.00;97.20
23347;DHT22;36852;45.466;11.066;2023-08-07T03:37:03;21.00;97.00
23347;DHT22;36852;45.466;11.066;2023-08-07T03:39:31;20.90;97.30
23347;DHT22;36852;45.466;11.066;2023-08-07T03:41:59;20.90;97.10
23347;DHT22;36852;45.466;11.066;2023-08-07T03:44:28;20.90;97.40
23347;DHT22;36852;45.466;11.066;2023-08-07T03:46:56;20.90;97.50
23347;DHT22;36852;45.466;11.066;2023-08-07T03:49:25;20.90;97.10
23347;DHT22;36852;45.466;11.066;2023-08-07T03:51:53;20.80;97.80
23347;DHT22;36852;45.466;11.066;2023-08-07T03:54:21;20.70;97.50
23347;DHT22;36852;45.466;11.066;2023-08-07T03:56:49;20.70;98.00
23347;DHT22;36852;45.466;11.066;2023-08-07T03:59:18;20.60;98.90
23347;DHT22;36852;45.466;11.066;2023-08-07T04:01:46;20.60;99.30
23347;DHT22;36852;45.466;11.066;2023-08-07T04:04:14;20.60;98.50
23347;DHT22;36852;45.466;11.066;2023-08-07T04:06:44;20.60;97.80
23347;DHT22;36852;45.466;11.066;2023-08-07T04:09:12;20.50;98.30
23347;DHT22;36852;45.466;11.066;2023-08-07T04:11:40;20.50;98.70
23347;DHT22;36852;45.466;11.066;2023-08-07T04:14:08;20.50;98.70
23347;DHT22;36852;45.466;11.066;2023-08-07T04:16:37;20.40;98.50
23347;DHT22;36852;45.466;11.066;2023-08-07T04:19:04;20.30;99.10
23347;DHT22;36852;45.466;11.066;2023-08-07T04:21:34;20.30;98.90
23347;DHT22;36852;45.466;11.066;2023-08-07T04:24:03;20.20;99.50
23347;DHT22;36852;45.466;11.066;2023-08-07T04:26:35;20.10;99.90
23347;DHT22;36852;45.466;11.066;2023-08-07T04:29:05;20.00;99.90
23347;DHT22;36852;45.466;11.066;2023-08-07T04:31:34;20.00;99.90
23347;DHT22;36852;45.466;11.066;2023-08-07T04:34:02;20.00;99.90
23347;DHT22;36852;45.466;11.066;2023-08-07T04:36:29;20.00;99.90
23347;DHT22;36852;45.466;11.066;2023-08-07T04:38:58;20.00;99.90
23347;DHT22;36852;45.466;11.066;2023-08-07T04:41:27;20.00;99.90
23347;DHT22;36852;45.466;11.066;2023-08-07T04:43:58;20.00;99.90
23347;DHT22;36852;45.466;11.066;2023-08-07T04:46:27;20.00;99.90
23347;DHT22;36852;45.466;11.066;2023-08-07T04:48:55;20.10;99.90
23347;DHT22;36852;45.466;11.066;2023-08-07T04:51:24;20.20;99.90
23347;DHT22;36852;45.466;11.066;2023-08-07T04:53:51;20.20;99.90
23347;DHT22;36852;45.466;11.066;2023-08-07T04:56:20;20.30;99.90
23347;DHT22;36852;45.466;11.066;2023-08-07T04:58:49;20.30;99.90
23347;DHT22;36852;45.466;11.066;2023-08-07T05:01:21;20.30;99.90
23347;DHT22;36852;45.466;11.066;2023-08-07T05:03:49;20.30;99.90
23347;DHT22;36852;45.466;11.066;2023-08-07T05:06:17;20.30;99.90
23347;DHT22;36852;45.466;11.066;2023-08-07T05:08:47;20.30;99.90
23347;DHT22;36852;45.466;11.066;2023-08-07T05:11:15;20.30;99.90
23347;DHT22;36852;45.466;11.066;2023-08-07T05:13:42;20.30;99.90
23347;DHT22;36852;45.466;11.066;2023-08-07T05:16:10;20.40;99.90
23347;DHT22;36852;45.466;11.066;2023-08-07T05:18:39;20.40;99.90
23347;DHT22;36852;45.466;11.066;2023-08-07T05:21:06;20.50;99.90
23347;DHT22;36852;45.466;11.066;2023-08-07T05:23:36;20.60;99.90
23347;DHT22;36852;45.466;11.066;2023-08-07T05:26:03;20.70;99.90
23347;DHT22;36852;45.466;11.066;2023-08-07T05:28:32;20.80;99.90
23347;DHT22;36852;45.466;11.066;2023-08-07T05:30:59;20.80;99.90
23347;DHT22;36852;45.466;11.066;2023-08-07T05:33:27;20.80;99.90
23347;DHT22;36852;45.466;11.066;2023-08-07T05:35:56;20.90;99.90
23347;DHT22;36852;45.466;11.066;2023-08-07T05:38:24;21.00;99.90
23347;DHT22;36852;45.466;11.066;2023-08-07T05:40:52;21.00;99.90
23347;DHT22;36852;45.466;11.066;2023-08-07T05:43:20;21.10;99.90
23347;DHT22;36852;45.466;11.066;2023-08-07T05:45:48;21.10;99.90
23347;DHT22;36852;45.466;11.066;2023-08-07T05:48:16;21.20;99.90
23347;DHT22;36852;45.466;11.066;2023-08-07T05:50:44;21.20;99.90
23347;DHT22;36852;45.466;11.066;2023-08-07T05:53:12;21.20;99.90
23347;DHT22;36852;45.466;11.066;2023-08-07T05:55:40;21.20;99.90
23347;DHT22;36852;45.466;11.066;2023-08-07T05:58:11;21.30;99.90
23347;DHT22;36852;45.466;11.066;2023-08-07T06:00:39;21.30;99.90
23347;DHT22;36852;45.466;11.066;2023-08-07T06:03:07;21.30;99.90
23347;DHT22;36852;45.466;11.066;2023-08-07T06:05:36;21.40;99.90
23347;DHT22;36852;45.466;11.066;2023-08-07T06:08:04;21.40;99.90
23347;DHT22;36852;45.466;11.066;2023-08-07T06:10:33;21.50;99.90
23347;DHT22;36852;45.466;11.066;2023-08-07T06:13:01;21.50;99.90
23347;DHT22;36852;45.466;11.066;2023-08-07T06:15:30;21.60;99.90
23347;DHT22;36852;45.466;11.066;2023-08-07T06:18:00;21.70;99.90
23347;DHT22;36852;45.466;11.066;2023-08-07T06:20:28;21.70;99.90
23347;DHT22;36852;45.466;11.066;2023-08-07T06:22:56;21.80;99.90
23347;DHT22;36852;45.466;11.066;2023-08-07T06:25:23;21.80;99.90
23347;DHT22;36852;45.466;11.066;2023-08-07T06:27:51;21.90;99.90
23347;DHT22;36852;45.466;11.066;2023-08-07T06:30:19;22.00;99.90
23347;DHT22;36852;45.466;11.066;2023-08-07T06:32:48;22.10;99.90
23347;DHT22;36852;45.466;11.066;2023-08-07T06:35:17;22.20;99.90
23347;DHT22;36852;45.466;11.066;2023-08-07T06:37:49;22.20;99.90
23347;DHT22;36852;45.466;11.066;2023-08-07T06:40:17;22.30;99.90
23347;DHT22;36852;45.466;11.066;2023-08-07T06:42:45;22.40;99.90
23347;DHT22;36852;45.466;11.066;2023-08-07T06:45:13;22.50;99.90
23347;DHT22;36852;45.466;11.066;2023-08-07T06:47:41;22.60;99.90
23347;DHT22;36852;45.466;11.066;2023-08-07T06:50:09;22.60;99.90
23347;DHT22;36852;45.466;11.066;2023-08-07T06:52:38;22.70;99.90
23347;DHT22;36852;45.466;11.066;2023-08-07T06:55:06;22.70;99.90
23347;DHT22;36852;45.466;11.066;2023-08-07T06:57:35;22.80;99.90
23347;DHT22;36852;45.466;11.066;2023-08-07T07:00:05;22.90;99.90
23347;DHT22;36852;45.466;11.066;2023-08-07T07:02:35;22.90;99.90
23347;DHT22;36852;45.466;11.066;2023-08-07T07:05:04;23.00;99.90
23347;DHT22;36852;45.466;11.066;2023-08-07T07:07:32;23.10;99.90
23347;DHT22;36852;45.466;11.066;2023-08-07T07:10:00;23.10;99.90
23347;DHT22;36852;45.466;11.066;2023-08-07T07:12:29;23.10;99.90
23347;DHT22;36852;45.466;11.066;2023-08-07T07:15:05;23.20;99.90
23347;DHT22;36852;45.466;11.066;2023-08-07T07:17:32;23.30;99.90
23347;DHT22;36852;45.466;11.066;2023-08-07T07:20:00;23.30;99.90
23347;DHT22;36852;45.466;11.066;2023-08-07T07:22:30;23.30;99.90
23347;DHT22;36852;45.466;11.066;2023-08-07T07:24:59;23.40;99.90
23347;DHT22;36852;45.466;11.066;2023-08-07T07:27:27;23.40;99.90
23347;DHT22;36852;45.466;11.066;2023-08-07T07:29:55;23.40;99.90
23347;DHT22;36852;45.466;11.066;2023-08-07T07:32:22;23.50;99.90
23347;DHT22;36852;45.466;11.066;2023-08-07T07:34:51;23.50;99.90
23347;DHT22;36852;45.466;11.066;2023-08-07T07:37:22;23.60;99.90
23347;DHT22;36852;45.466;11.066;2023-08-07T07:39:50;23.60;99.90
23347;DHT22;36852;45.466;11.066;2023-08-07T07:42:18;23.60;99.50
23347;DHT22;36852;45.466;11.066;2023-08-07T07:44:47;23.70;99.90
23347;DHT22;36852;45.466;11.066;2023-08-07T07:47:15;23.70;99.40
23347;DHT22;36852;45.466;11.066;2023-08-07T07:49:45;23.80;99.90
23347;DHT22;36852;45.466;11.066;2023-08-07T07:52:16;23.80;99.90
23347;DHT22;36852;45.466;11.066;2023-08-07T07:54:44;23.80;99.90
23347;DHT22;36852;45.466;11.066;2023-08-07T07:57:15;23.90;99.90
23347;DHT22;36852;45.466;11.066;2023-08-07T07:59:43;23.90;99.90
23347;DHT22;36852;45.466;11.066;2023-08-07T08:02:14;24.00;99.90
23347;DHT22;36852;45.466;11.066;2023-08-07T08:04:46;24.10;99.90
23347;DHT22;36852;45.466;11.066;2023-08-07T08:07:15;24.20;99.60
23347;DHT22;36852;45.466;11.066;2023-08-07T08:09:43;24.20;99.40
23347;DHT22;36852;45.466;11.066;2023-08-07T08:12:11;24.30;99.50
23347;DHT22;36852;45.466;11.066;2023-08-07T08:14:39;24.40;99.70
23347;DHT22;36852;45.466;11.066;2023-08-07T08:17:10;24.40;99.20
23347;DHT22;36852;45.466;11.066;2023-08-07T08:19:38;24.40;98.90
23347;DHT22;36852;45.466;11.066;2023-08-07T08:22:11;24.50;99.50
23347;DHT22;36852;45.466;11.066;2023-08-07T08:24:39;24.60;99.50
23347;DHT22;36852;45.466;11.066;2023-08-07T08:27:07;24.70;98.90
23347;DHT22;36852;45.466;11.066;2023-08-07T08:29:35;24.70;97.20
23347;DHT22;36852;45.466;11.066;2023-08-07T08:32:03;24.70;96.50
23347;DHT22;36852;45.466;11.066;2023-08-07T08:34:31;24.80;96.60
23347;DHT22;36852;45.466;11.066;2023-08-07T08:37:00;24.80;95.90
23347;DHT22;36852;45.466;11.066;2023-08-07T08:39:28;24.80;95.10
23347;DHT22;36852;45.466;11.066;2023-08-07T08:41:56;24.90;93.60
23347;DHT22;36852;45.466;11.066;2023-08-07T08:44:24;24.90;92.10
23347;DHT22;36852;45.466;11.066;2023-08-07T08:46:54;24.80;90.70
23347;DHT22;36852;45.466;11.066;2023-08-07T08:49:32;24.80;88.40
23347;DHT22;36852;45.466;11.066;2023-08-07T08:51:59;24.80;88.20
23347;DHT22;36852;45.466;11.066;2023-08-07T08:54:27;24.80;86.60
23347;DHT22;36852;45.466;11.066;2023-08-07T08:56:57;24.70;87.30
23347;DHT22;36852;45.466;11.066;2023-08-07T08:59:26;24.80;88.60
23347;DHT22;36852;45.466;11.066;2023-08-07T09:01:55;24.80;89.40
23347;DHT22;36852;45.466;11.066;2023-08-07T09:04:23;24.80;90.50
23347;DHT22;36852;45.466;11.066;2023-08-07T09:06:51;24.90;90.10
23347;DHT22;36852;45.466;11.066;2023-08-07T09:09:20;24.90;88.60
23347;DHT22;36852;45.466;11.066;2023-08-07T09:11:56;25.00;85.60
23347;DHT22;36852;45.466;11.066;2023-08-07T09:14:27;25.10;83.70
23347;DHT22;36852;45.466;11.066;2023-08-07T09:16:59;25.20;82.70
23347;DHT22;36852;45.466;11.066;2023-08-07T09:19:28;25.20;79.70
23347;DHT22;36852;45.466;11.066;2023-08-07T09:21:55;25.30;77.60
23347;DHT22;36852;45.466;11.066;2023-08-07T09:24:23;25.30;73.60
23347;DHT22;36852;45.466;11.066;2023-08-07T09:26:51;25.30;71.60
23347;DHT22;36852;45.466;11.066;2023-08-07T09:29:22;25.40;72.40
23347;DHT22;36852;45.466;11.066;2023-08-07T09:31:49;25.40;75.90
23347;DHT22;36852;45.466;11.066;2023-08-07T09:34:20;25.40;73.90
23347;DHT22;36852;45.466;11.066;2023-08-07T09:36:47;25.50;72.90
23347;DHT22;36852;45.466;11.066;2023-08-07T09:39:18;25.60;74.10
23347;DHT22;36852;45.466;11.066;2023-08-07T09:41:50;25.60;73.60
23347;DHT22;36852;45.466;11.066;2023-08-07T09:44:19;25.60;69.60
23347;DHT22;36852;45.466;11.066;2023-08-07T09:46:47;25.50;71.50
23347;DHT22;36852;45.466;11.066;2023-08-07T09:49:33;25.60;73.60
23347;DHT22;36852;45.466;11.066;2023-08-07T09:52:04;25.60;73.90
23347;DHT22;36852;45.466;11.066;2023-08-07T09:54:35;25.60;75.80
23347;DHT22;36852;45.466;11.066;2023-08-07T09:57:04;25.70;75.80
23347;DHT22;36852;45.466;11.066;2023-08-07T09:59:33;25.80;77.70
23347;DHT22;36852;45.466;11.066;2023-08-07T10:02:03;25.80;72.10
23347;DHT22;36852;45.466;11.066;2023-08-07T10:04:31;25.90;69.20
23347;DHT22;36852;45.466;11.066;2023-08-07T10:07:01;25.90;68.10
23347;DHT22;36852;45.466;11.066;2023-08-07T10:09:30;26.00;66.10
23347;DHT22;36852;45.466;11.066;2023-08-07T10:12:00;26.00;63.00
23347;DHT22;36852;45.466;11.066;2023-08-07T10:14:30;26.00;62.80
23347;DHT22;36852;45.466;11.066;2023-08-07T10:16:58;26.00;64.40
23347;DHT22;36852;45.466;11.066;2023-08-07T10:19:26;26.10;65.50
23347;DHT22;36852;45.466;11.066;2023-08-07T10:21:54;26.10;63.90
23347;DHT22;36852;45.466;11.066;2023-08-07T10:24:23;26.20;60.00
23347;DHT22;36852;45.466;11.066;2023-08-07T10:26:52;26.20;58.50
23347;DHT22;36852;45.466;11.066;2023-08-07T10:29:24;26.20;58.60
23347;DHT22;36852;45.466;11.066;2023-08-07T10:31:55;26.30;59.30
23347;DHT22;36852;45.466;11.066;2023-08-07T10:34:24;26.30;59.80
23347;DHT22;36852;45.466;11.066;2023-08-07T10:36:52;26.30;59.70
23347;DHT22;36852;45.466;11.066;2023-08-07T10:39:20;26.30;56.00
23347;DHT22;36852;45.466;11.066;2023-08-07T10:41:54;26.20;56.70
23347;DHT22;36852;45.466;11.066;2023-08-07T10:44:24;26.20;55.60
23347;DHT22;36852;45.466;11.066;2023-08-07T10:46:55;26.10;56.90
23347;DHT22;36852;45.466;11.066;2023-08-07T10:57:21;26.00;57.40
23347;DHT22;36852;45.466;11.066;2023-08-07T11:00:02;26.10;57.20
23347;DHT22;36852;45.466;11.066;2023-08-07T11:02:37;26.10;57.10
23347;DHT22;36852;45.466;11.066;2023-08-07T11:05:07;26.10;57.30
23347;DHT22;36852;45.466;11.066;2023-08-07T11:07:39;26.20;53.80
23347;DHT22;36852;45.466;11.066;2023-08-07T11:10:08;26.20;55.40
23347;DHT22;36852;45.466;11.066;2023-08-07T11:12:43;26.20;56.10
23347;DHT22;36852;45.466;11.066;2023-08-07T11:15:13;26.20;55.80
23347;DHT22;36852;45.466;11.066;2023-08-07T11:17:41;26.20;55.30
23347;DHT22;36852;45.466;11.066;2023-08-07T11:20:11;26.10;54.50
23347;DHT22;36852;45.466;11.066;2023-08-07T11:22:39;26.10;53.80
23347;DHT22;36852;45.466;11.066;2023-08-07T11:25:07;26.10;52.80
23347;DHT22;36852;45.466;11.066;2023-08-07T11:27:36;26.00;54.90
23347;DHT22;36852;45.466;11.066;2023-08-07T11:30:05;26.00;55.10
23347;DHT22;36852;45.466;11.066;2023-08-07T11:32:34;26.10;52.00
23347;DHT22;36852;45.466;11.066;2023-08-07T11:35:02;26.10;53.80
23347;DHT22;36852;45.466;11.066;2023-08-07T11:37:32;26.20;54.20
23347;DHT22;36852;45.466;11.066;2023-08-07T11:40:05;26.20;50.20
23347;DHT22;36852;45.466;11.066;2023-08-07T11:42:34;26.30;50.20
23347;DHT22;36852;45.466;11.066;2023-08-07T11:45:03;26.30;48.10
23347;DHT22;36852;45.466;11.066;2023-08-07T11:47:33;26.30;45.70
23347;DHT22;36852;45.466;11.066;2023-08-07T11:50:02;26.30;44.10
23347;DHT22;36852;45.466;11.066;2023-08-07T11:52:30;26.40;46.90
23347;DHT22;36852;45.466;11.066;2023-08-07T11:55:01;26.40;48.00
23347;DHT22;36852;45.466;11.066;2023-08-07T11:57:29;26.40;49.10
23347;DHT22;36852;45.466;11.066;2023-08-07T11:59:59;26.50;46.60
23347;DHT22;36852;45.466;11.066;2023-08-07T12:02:26;26.50;44.20
23347;DHT22;36852;45.466;11.066;2023-08-07T12:04:58;26.60;47.50
23347;DHT22;36852;45.466;11.066;2023-08-07T12:07:27;26.70;50.50
23347;DHT22;36852;45.466;11.066;2023-08-07T12:09:57;26.70;49.30
23347;DHT22;36852;45.466;11.066;2023-08-07T12:12:24;26.80;47.80
23347;DHT22;36852;45.466;11.066;2023-08-07T12:14:54;26.90;48.80
23347;DHT22;36852;45.466;11.066;2023-08-07T12:17:22;27.00;50.50
23347;DHT22;36852;45.466;11.066;2023-08-07T12:19:57;27.00;48.10
23347;DHT22;36852;45.466;11.066;2023-08-07T12:22:27;27.10;47.70
23347;DHT22;36852;45.466;11.066;2023-08-07T12:24:57;27.10;45.80
23347;DHT22;36852;45.466;11.066;2023-08-07T12:27:25;27.20;44.90
23347;DHT22;36852;45.466;11.066;2023-08-07T12:29:53;27.00;43.10
23347;DHT22;36852;45.466;11.066;2023-08-07T12:32:24;26.90;42.30
23347;DHT22;36852;45.466;11.066;2023-08-07T12:34:52;27.00;44.60
23347;DHT22;36852;45.466;11.066;2023-08-07T12:37:22;27.00;45.30
23347;DHT22;36852;45.466;11.066;2023-08-07T12:39:51;27.10;45.10
23347;DHT22;36852;45.466;11.066;2023-08-07T12:42:20;27.20;46.00
23347;DHT22;36852;45.466;11.066;2023-08-07T12:44:50;27.20;43.90
23347;DHT22;36852;45.466;11.066;2023-08-07T12:47:20;27.20;44.00
23347;DHT22;36852;45.466;11.066;2023-08-07T12:49:48;27.20;44.00
23347;DHT22;36852;45.466;11.066;2023-08-07T12:52:18;27.20;44.10
23347;DHT22;36852;45.466;11.066;2023-08-07T12:54:47;27.20;42.70
23347;DHT22;36852;45.466;11.066;2023-08-07T12:57:15;27.30;45.20
23347;DHT22;36852;45.466;11.066;2023-08-07T12:59:43;27.40;43.80
23347;DHT22;36852;45.466;11.066;2023-08-07T13:02:11;27.40;43.70
23347;DHT22;36852;45.466;11.066;2023-08-07T13:04:38;27.50;44.70
23347;DHT22;36852;45.466;11.066;2023-08-07T13:07:06;27.60;44.50
23347;DHT22;36852;45.466;11.066;2023-08-07T13:09:35;27.70;41.70
23347;DHT22;36852;45.466;11.066;2023-08-07T13:12:09;27.80;42.10
23347;DHT22;36852;45.466;11.066;2023-08-07T13:14:37;27.90;43.60
23347;DHT22;36852;45.466;11.066;2023-08-07T13:17:06;28.00;41.30
23347;DHT22;36852;45.466;11.066;2023-08-07T13:19:36;27.90;41.50
23347;DHT22;36852;45.466;11.066;2023-08-07T13:22:13;28.00;40.80
23347;DHT22;36852;45.466;11.066;2023-08-07T13:24:42;28.10;41.40
23347;DHT22;36852;45.466;11.066;2023-08-07T13:27:10;28.10;38.90
23347;DHT22;36852;45.466;11.066;2023-08-07T13:29:41;28.20;41.40
23347;DHT22;36852;45.466;11.066;2023-08-07T13:32:09;28.20;40.30
23347;DHT22;36852;45.466;11.066;2023-08-07T13:34:37;28.30;39.40
23347;DHT22;36852;45.466;11.066;2023-08-07T13:37:08;28.30;38.30
23347;DHT22;36852;45.466;11.066;2023-08-07T13:39:37;28.40;40.60
23347;DHT22;36852;45.466;11.066;2023-08-07T13:42:07;28.50;39.20
23347;DHT22;36852;45.466;11.066;2023-08-07T13:44:34;28.70;39.30
23347;DHT22;36852;45.466;11.066;2023-08-07T13:47:04;28.70;39.70
23347;DHT22;36852;45.466;11.066;2023-08-07T13:49:32;28.80;39.80
23347;DHT22;36852;45.466;11.066;2023-08-07T13:51:59;29.00;39.50
23347;DHT22;36852;45.466;11.066;2023-08-07T13:54:28;29.10;40.70
23347;DHT22;36852;45.466;11.066;2023-08-07T13:56:56;29.30;41.70
23347;DHT22;36852;45.466;11.066;2023-08-07T13:59:24;29.40;39.80
23347;DHT22;36852;45.466;11.066;2023-08-07T14:01:53;29.30;38.30
23347;DHT22;36852;45.466;11.066;2023-08-07T14:04:22;29.20;38.10
23347;DHT22;36852;45.466;11.066;2023-08-07T14:06:51;29.00;37.10
23347;DHT22;36852;45.466;11.066;2023-08-07T14:09:19;28.90;39.40
23347;DHT22;36852;45.466;11.066;2023-08-07T14:11:49;29.00;39.80
23347;DHT22;36852;45.466;11.066;2023-08-07T14:14:21;29.20;40.40
23347;DHT22;36852;45.466;11.066;2023-08-07T14:16:49;29.60;41.90
23347;DHT22;36852;45.466;11.066;2023-08-07T14:19:22;29.80;40.00
23347;DHT22;36852;45.466;11.066;2023-08-07T14:21:53;30.00;38.00
23347;DHT22;36852;45.466;11.066;2023-08-07T14:24:21;30.30;37.80
23347;DHT22;36852;45.466;11.066;2023-08-07T14:26:49;30.40;38.50
23347;DHT22;36852;45.466;11.066;2023-08-07T14:29:17;30.70;37.60
23347;DHT22;36852;45.466;11.066;2023-08-07T14:31:45;31.00;38.70
23347;DHT22;36852;45.466;11.066;2023-08-07T14:34:13;31.20;38.40
23347;DHT22;36852;45.466;11.066;2023-08-07T14:36:41;31.40;37.30
23347;DHT22;36852;45.466;11.066;2023-08-07T14:39:09;31.60;37.70
23347;DHT22;36852;45.466;11.066;2023-08-07T14:41:37;31.80;38.90
23347;DHT22;36852;45.466;11.066;2023-08-07T14:44:05;32.00;36.40
23347;DHT22;36852;45.466;11.066;2023-08-07T14:46:32;32.00;35.60
23347;DHT22;36852;45.466;11.066;2023-08-07T14:49:01;32.00;36.90
23347;DHT22;36852;45.466;11.066;2023-08-07T14:51:29;31.60;38.20
23347;DHT22;36852;45.466;11.066;2023-08-07T14:53:58;31.70;37.70
23347;DHT22;36852;45.466;11.066;2023-08-07T14:56:26;31.50;37.70
23347;DHT22;36852;45.466;11.066;2023-08-07T14:58:56;31.50;36.50
23347;DHT22;36852;45.466;11.066;2023-08-07T15:01:28;31.50;36.50
23347;DHT22;36852;45.466;11.066;2023-08-07T15:04:17;31.60;37.60
23347;DHT22;36852;45.466;11.066;2023-08-07T15:06:45;32.00;36.30
23347;DHT22;36852;45.466;11.066;2023-08-07T15:09:18;32.00;35.70
23347;DHT22;36852;45.466;11.066;2023-08-07T15:11:49;32.00;36.00
23347;DHT22;36852;45.466;11.066;2023-08-07T15:14:20;31.70;35.90
23347;DHT22;36852;45.466;11.066;2023-08-07T15:16:48;31.80;35.90
23347;DHT22;36852;45.466;11.066;2023-08-07T15:19:17;31.70;34.80
23347;DHT22;36852;45.466;11.066;2023-08-07T15:21:45;31.40;34.90
23347;DHT22;36852;45.466;11.066;2023-08-07T15:24:13;31.30;33.90
23347;DHT22;36852;45.466;11.066;2023-08-07T15:26:40;31.30;34.70
23347;DHT22;36852;45.466;11.066;2023-08-07T15:29:11;31.40;36.70
23347;DHT22;36852;45.466;11.066;2023-08-07T15:31:39;31.40;35.70
23347;DHT22;36852;45.466;11.066;2023-08-07T15:34:08;31.70;35.70
23347;DHT22;36852;45.466;11.066;2023-08-07T15:36:37;31.90;33.50
23347;DHT22;36852;45.466;11.066;2023-08-07T15:39:06;32.10;33.20